Allen, Nebraska
Current Conditions -  °F | °C
As of 10:35 PM on Wednesday 22 Oct 2014 (Local Time) from KLCG Reporting Station
Overcast Overcast  
Wind Chill: 15°   Ceiling: 900
Heat Index: 15°   Visibility: 10mi
Dew Point: 14°   Wind: 0mph
Humidity: 97%   Direction: NA
Pressure: 30.04"   Gusts: NA
Location:  42.42°N, 96.85°W
Report Text: KLCG 230335Z AUTO 00000KT 10SM BKN009 OVC022 15/14 A3004 RMK AO2 T01460141
Loading
Personal Weather Stations






























Interactive Weather Map
Tropical Storm Tracking
New forecast layout! Learn more

10-Day Weather Forecast

Advertisements
Track Severe Weather on mobile